sensor_id;sensor_type;location;lat;lon;timestamp;P1;durP1;ratioP1;P2;durP2;ratioP2
39256;SDS011;67272;48.066;11.038;2023-05-24T00:01:27;5.50;;;5.00;;
39256;SDS011;67272;48.066;11.038;2023-05-24T00:03:53;5.18;;;4.72;;
39256;SDS011;67272;48.066;11.038;2023-05-24T00:06:29;4.82;;;4.43;;
39256;SDS011;67272;48.066;11.038;2023-05-24T00:08:59;5.00;;;4.18;;
39256;SDS011;67272;48.066;11.038;2023-05-24T00:11:29;5.00;;;4.60;;
39256;SDS011;67272;48.066;11.038;2023-05-24T00:13:55;5.00;;;4.60;;
39256;SDS011;67272;48.066;11.038;2023-05-24T00:16:25;4.60;;;4.20;;
39256;SDS011;67272;48.066;11.038;2023-05-24T00:18:54;4.68;;;4.28;;
39256;SDS011;67272;48.066;11.038;2023-05-24T00:21:29;4.53;;;4.13;;
39256;SDS011;67272;48.066;11.038;2023-05-24T00:23:56;4.20;;;3.90;;
39256;SDS011;67272;48.066;11.038;2023-05-24T00:26:23;5.05;;;4.03;;
39256;SDS011;67272;48.066;11.038;2023-05-24T00:28:54;3.92;;;3.63;;
39256;SDS011;67272;48.066;11.038;2023-05-24T00:31:20;4.87;;;4.50;;
39256;SDS011;67272;48.066;11.038;2023-05-24T00:33:47;4.43;;;4.05;;
39256;SDS011;67272;48.066;11.038;2023-05-24T00:36:13;4.25;;;3.85;;
39256;SDS011;67272;48.066;11.038;2023-05-24T00:38:42;4.20;;;3.90;;
39256;SDS011;67272;48.066;11.038;2023-05-24T00:41:09;3.80;;;3.50;;
39256;SDS011;67272;48.066;11.038;2023-05-24T00:43:36;3.92;;;3.63;;
39256;SDS011;67272;48.066;11.038;2023-05-24T00:46:13;4.00;;;3.70;;
39256;SDS011;67272;48.066;11.038;2023-05-24T00:48:41;3.63;;;3.33;;
39256;SDS011;67272;48.066;11.038;2023-05-24T00:51:08;4.22;;;3.92;;
39256;SDS011;67272;48.066;11.038;2023-05-24T00:53:35;4.20;;;3.83;;
39256;SDS011;67272;48.066;11.038;2023-05-24T00:56:02;3.92;;;3.63;;
39256;SDS011;67272;48.066;11.038;2023-05-24T00:58:31;4.03;;;3.72;;
39256;SDS011;67272;48.066;11.038;2023-05-24T01:01:00;4.00;;;3.60;;
39256;SDS011;67272;48.066;11.038;2023-05-24T01:03:27;4.03;;;3.63;;
39256;SDS011;67272;48.066;11.038;2023-05-24T01:05:54;3.83;;;3.53;;
39256;SDS011;67272;48.066;11.038;2023-05-24T01:11:12;4.00;;;3.60;;
39256;SDS011;67272;48.066;11.038;2023-05-24T01:16:30;3.78;;;3.47;;
39256;SDS011;67272;48.066;11.038;2023-05-24T01:19:10;4.72;;;4.32;;
39256;SDS011;67272;48.066;11.038;2023-05-24T01:29:21;3.83;;;3.53;;
39256;SDS011;67272;48.066;11.038;2023-05-24T01:31:59;4.22;;;3.88;;
39256;SDS011;67272;48.066;11.038;2023-05-24T01:34:26;4.70;;;3.90;;
39256;SDS011;67272;48.066;11.038;2023-05-24T01:36:52;3.67;;;3.38;;
39256;SDS011;67272;48.066;11.038;2023-05-24T01:39:19;3.60;;;3.33;;
39256;SDS011;67272;48.066;11.038;2023-05-24T01:44:33;3.70;;;3.40;;
39256;SDS011;67272;48.066;11.038;2023-05-24T01:47:10;3.63;;;3.33;;
39256;SDS011;67272;48.066;11.038;2023-05-24T01:49:49;3.80;;;3.50;;
39256;SDS011;67272;48.066;11.038;2023-05-24T01:52:18;3.63;;;3.33;;
39256;SDS011;67272;48.066;11.038;2023-05-24T01:54:50;3.70;;;3.40;;
39256;SDS011;67272;48.066;11.038;2023-05-24T01:57:23;3.78;;;3.47;;
39256;SDS011;67272;48.066;11.038;2023-05-24T01:59:53;4.03;;;3.72;;
39256;SDS011;67272;48.066;11.038;2023-05-24T02:02:21;3.63;;;3.33;;
39256;SDS011;67272;48.066;11.038;2023-05-24T02:04:48;4.10;;;3.67;;
39256;SDS011;67272;48.066;11.038;2023-05-24T02:07:14;3.90;;;3.60;;
39256;SDS011;67272;48.066;11.038;2023-05-24T02:09:42;4.03;;;3.63;;
39256;SDS011;67272;48.066;11.038;2023-05-24T02:12:08;3.58;;;3.28;;
39256;SDS011;67272;48.066;11.038;2023-05-24T02:14:35;4.10;;;3.70;;
39256;SDS011;67272;48.066;11.038;2023-05-24T02:17:02;3.83;;;3.47;;
39256;SDS011;67272;48.066;11.038;2023-05-24T02:19:28;4.03;;;3.72;;
39256;SDS011;67272;48.066;11.038;2023-05-24T02:21:55;4.40;;;4.00;;
39256;SDS011;67272;48.066;11.038;2023-05-24T02:24:21;3.80;;;3.50;;
39256;SDS011;67272;48.066;11.038;2023-05-24T02:26:47;3.92;;;3.63;;
39256;SDS011;67272;48.066;11.038;2023-05-24T02:29:13;4.07;;;3.78;;
39256;SDS011;67272;48.066;11.038;2023-05-24T02:31:39;4.50;;;3.92;;
39256;SDS011;67272;48.066;11.038;2023-05-24T02:34:06;3.85;;;3.45;;
39256;SDS011;67272;48.066;11.038;2023-05-24T02:36:32;4.40;;;3.58;;
39256;SDS011;67272;48.066;11.038;2023-05-24T02:39:00;4.03;;;3.67;;
39256;SDS011;67272;48.066;11.038;2023-05-24T02:41:31;4.15;;;3.85;;
39256;SDS011;67272;48.066;11.038;2023-05-24T02:43:57;3.92;;;3.63;;
39256;SDS011;67272;48.066;11.038;2023-05-24T02:46:24;3.92;;;3.63;;
39256;SDS011;67272;48.066;11.038;2023-05-24T02:48:50;3.90;;;3.50;;
39256;SDS011;67272;48.066;11.038;2023-05-24T02:51:23;4.60;;;4.15;;
39256;SDS011;67272;48.066;11.038;2023-05-24T02:53:52;4.47;;;4.07;;
39256;SDS011;67272;48.066;11.038;2023-05-24T02:56:19;4.40;;;4.10;;
39256;SDS011;67272;48.066;11.038;2023-05-24T02:58:52;4.40;;;3.78;;
39256;SDS011;67272;48.066;11.038;2023-05-24T03:01:20;3.92;;;3.63;;
39256;SDS011;67272;48.066;11.038;2023-05-24T03:03:49;4.35;;;3.95;;
39256;SDS011;67272;48.066;11.038;2023-05-24T03:06:15;4.68;;;4.25;;
39256;SDS011;67272;48.066;11.038;2023-05-24T03:08:48;4.03;;;3.70;;
39256;SDS011;67272;48.066;11.038;2023-05-24T03:11:15;4.15;;;3.85;;
39256;SDS011;67272;48.066;11.038;2023-05-24T03:13:49;4.18;;;3.80;;
39256;SDS011;67272;48.066;11.038;2023-05-24T03:16:15;4.30;;;3.90;;
39256;SDS011;67272;48.066;11.038;2023-05-24T03:18:44;5.10;;;4.68;;
39256;SDS011;67272;48.066;11.038;2023-05-24T03:21:10;4.47;;;3.97;;
39256;SDS011;67272;48.066;11.038;2023-05-24T03:23:42;5.22;;;4.78;;
39256;SDS011;67272;48.066;11.038;2023-05-24T03:26:08;5.18;;;4.72;;
39256;SDS011;67272;48.066;11.038;2023-05-24T03:28:34;5.43;;;4.93;;
39256;SDS011;67272;48.066;11.038;2023-05-24T03:31:05;5.53;;;4.93;;
39256;SDS011;67272;48.066;11.038;2023-05-24T03:33:35;5.38;;;4.88;;
39256;SDS011;67272;48.066;11.038;2023-05-24T03:36:04;5.78;;;5.28;;
39256;SDS011;67272;48.066;11.038;2023-05-24T03:38:53;5.72;;;5.22;;
39256;SDS011;67272;48.066;11.038;2023-05-24T03:41:23;6.93;;;6.35;;
39256;SDS011;67272;48.066;11.038;2023-05-24T03:43:50;6.28;;;5.78;;
39256;SDS011;67272;48.066;11.038;2023-05-24T03:46:18;6.40;;;5.43;;
39256;SDS011;67272;48.066;11.038;2023-05-24T03:48:53;6.97;;;5.93;;
39256;SDS011;67272;48.066;11.038;2023-05-24T03:51:20;6.53;;;5.45;;
39256;SDS011;67272;48.066;11.038;2023-05-24T03:53:48;5.78;;;5.18;;
39256;SDS011;67272;48.066;11.038;2023-05-24T03:56:17;6.57;;;5.95;;
39256;SDS011;67272;48.066;11.038;2023-05-24T03:58:44;6.15;;;5.60;;
39256;SDS011;67272;48.066;11.038;2023-05-24T04:01:10;7.07;;;6.38;;
39256;SDS011;67272;48.066;11.038;2023-05-24T04:03:36;6.95;;;6.22;;
39256;SDS011;67272;48.066;11.038;2023-05-24T04:06:03;7.57;;;5.75;;
39256;SDS011;67272;48.066;11.038;2023-05-24T04:08:29;7.00;;;6.30;;
39256;SDS011;67272;48.066;11.038;2023-05-24T04:10:56;7.45;;;6.30;;
39256;SDS011;67272;48.066;11.038;2023-05-24T04:13:22;6.63;;;6.03;;
39256;SDS011;67272;48.066;11.038;2023-05-24T04:15:52;7.25;;;6.20;;
39256;SDS011;67272;48.066;11.038;2023-05-24T04:18:18;6.78;;;6.18;;
39256;SDS011;67272;48.066;11.038;2023-05-24T04:20:45;6.32;;;5.72;;
39256;SDS011;67272;48.066;11.038;2023-05-24T04:23:15;7.03;;;6.10;;
39256;SDS011;67272;48.066;11.038;2023-05-24T04:25:42;6.65;;;5.93;;
39256;SDS011;67272;48.066;11.038;2023-05-24T04:28:12;7.93;;;7.23;;
39256;SDS011;67272;48.066;11.038;2023-05-24T04:30:39;6.80;;;6.10;;
39256;SDS011;67272;48.066;11.038;2023-05-24T04:33:10;8.02;;;6.03;;
39256;SDS011;67272;48.066;11.038;2023-05-24T04:35:36;7.00;;;6.15;;
39256;SDS011;67272;48.066;11.038;2023-05-24T04:38:04;6.43;;;5.80;;
39256;SDS011;67272;48.066;11.038;2023-05-24T04:40:31;7.28;;;6.07;;
39256;SDS011;67272;48.066;11.038;2023-05-24T04:42:57;6.70;;;6.10;;
39256;SDS011;67272;48.066;11.038;2023-05-24T04:45:24;6.68;;;6.00;;
39256;SDS011;67272;48.066;11.038;2023-05-24T04:47:55;6.72;;;6.03;;
39256;SDS011;67272;48.066;11.038;2023-05-24T04:50:21;7.15;;;6.45;;
39256;SDS011;67272;48.066;11.038;2023-05-24T04:52:48;7.20;;;5.82;;
39256;SDS011;67272;48.066;11.038;2023-05-24T04:55:17;6.90;;;6.18;;
39256;SDS011;67272;48.066;11.038;2023-05-24T04:57:43;6.13;;;5.53;;
39256;SDS011;67272;48.066;11.038;2023-05-24T05:00:09;6.40;;;5.80;;
39256;SDS011;67272;48.066;11.038;2023-05-24T05:02:39;6.68;;;5.60;;
39256;SDS011;67272;48.066;11.038;2023-05-24T05:05:05;6.22;;;5.63;;
39256;SDS011;67272;48.066;11.038;2023-05-24T05:07:32;6.82;;;5.75;;
39256;SDS011;67272;48.066;11.038;2023-05-24T05:09:59;6.70;;;6.00;;
39256;SDS011;67272;48.066;11.038;2023-05-24T05:12:25;6.32;;;5.55;;
39256;SDS011;67272;48.066;11.038;2023-05-24T05:14:52;6.20;;;5.60;;
39256;SDS011;67272;48.066;11.038;2023-05-24T05:17:25;6.07;;;5.47;;
39256;SDS011;67272;48.066;11.038;2023-05-24T05:19:51;7.15;;;5.53;;
39256;SDS011;67272;48.066;11.038;2023-05-24T05:22:18;6.53;;;5.63;;
39256;SDS011;67272;48.066;11.038;2023-05-24T05:24:44;5.95;;;5.35;;
39256;SDS011;67272;48.066;11.038;2023-05-24T05:27:14;5.88;;;5.25;;
39256;SDS011;67272;48.066;11.038;2023-05-24T05:29:40;6.78;;;5.60;;
39256;SDS011;67272;48.066;11.038;2023-05-24T05:32:06;6.20;;;5.43;;
39256;SDS011;67272;48.066;11.038;2023-05-24T05:34:33;6.30;;;5.70;;
39256;SDS011;67272;48.066;11.038;2023-05-24T05:36:59;7.72;;;5.55;;
39256;SDS011;67272;48.066;11.038;2023-05-24T05:39:26;6.72;;;5.53;;
39256;SDS011;67272;48.066;11.038;2023-05-24T05:41:55;5.28;;;4.82;;
39256;SDS011;67272;48.066;11.038;2023-05-24T05:44:22;7.43;;;4.95;;
39256;SDS011;67272;48.066;11.038;2023-05-24T05:46:48;5.68;;;5.18;;
39256;SDS011;67272;48.066;11.038;2023-05-24T05:49:21;5.63;;;5.10;;
39256;SDS011;67272;48.066;11.038;2023-05-24T05:51:47;5.47;;;4.97;;
39256;SDS011;67272;48.066;11.038;2023-05-24T05:54:17;6.05;;;5.15;;
39256;SDS011;67272;48.066;11.038;2023-05-24T05:56:44;5.35;;;4.85;;
39256;SDS011;67272;48.066;11.038;2023-05-24T05:59:12;5.53;;;5.03;;
39256;SDS011;67272;48.066;11.038;2023-05-24T06:01:38;5.45;;;4.88;;
39256;SDS011;67272;48.066;11.038;2023-05-24T06:04:05;4.93;;;4.43;;
39256;SDS011;67272;48.066;11.038;2023-05-24T06:06:32;5.57;;;5.03;;
39256;SDS011;67272;48.066;11.038;2023-05-24T06:08:58;5.05;;;4.38;;
39256;SDS011;67272;48.066;11.038;2023-05-24T06:11:25;5.72;;;4.78;;
39256;SDS011;67272;48.066;11.038;2023-05-24T06:13:54;5.43;;;4.93;;
39256;SDS011;67272;48.066;11.038;2023-05-24T06:16:20;7.03;;;4.88;;
39256;SDS011;67272;48.066;11.038;2023-05-24T06:18:47;5.35;;;4.85;;
39256;SDS011;67272;48.066;11.038;2023-05-24T06:21:14;5.60;;;4.55;;
39256;SDS011;67272;48.066;11.038;2023-05-24T06:23:40;5.75;;;4.43;;
39256;SDS011;67272;48.066;11.038;2023-05-24T06:26:07;5.32;;;4.70;;
39256;SDS011;67272;48.066;11.038;2023-05-24T06:28:37;4.55;;;4.15;;
39256;SDS011;67272;48.066;11.038;2023-05-24T06:31:04;4.95;;;4.45;;
39256;SDS011;67272;48.066;11.038;2023-05-24T06:33:31;5.00;;;4.50;;
39256;SDS011;67272;48.066;11.038;2023-05-24T06:35:57;4.22;;;3.80;;
39256;SDS011;67272;48.066;11.038;2023-05-24T06:38:23;6.35;;;4.35;;
39256;SDS011;67272;48.066;11.038;2023-05-24T06:40:50;4.45;;;4.10;;
39256;SDS011;67272;48.066;11.038;2023-05-24T06:43:16;4.85;;;4.38;;
39256;SDS011;67272;48.066;11.038;2023-05-24T06:45:43;7.75;;;4.57;;
39256;SDS011;67272;48.066;11.038;2023-05-24T06:48:10;11.98;;;4.88;;
39256;SDS011;67272;48.066;11.038;2023-05-24T06:50:37;4.43;;;4.03;;
39256;SDS011;67272;48.066;11.038;2023-05-24T06:53:06;4.60;;;4.20;;
39256;SDS011;67272;48.066;11.038;2023-05-24T06:55:32;4.88;;;4.18;;
39256;SDS011;67272;48.066;11.038;2023-05-24T06:57:59;4.68;;;4.22;;
39256;SDS011;67272;48.066;11.038;2023-05-24T07:00:25;10.20;;;4.60;;
39256;SDS011;67272;48.066;11.038;2023-05-24T07:02:58;4.78;;;4.28;;
39256;SDS011;67272;48.066;11.038;2023-05-24T07:05:24;4.32;;;3.92;;
39256;SDS011;67272;48.066;11.038;2023-05-24T07:07:50;4.90;;;4.43;;
39256;SDS011;67272;48.066;11.038;2023-05-24T07:10:17;4.40;;;4.00;;
39256;SDS011;67272;48.066;11.038;2023-05-24T07:12:43;4.25;;;3.80;;
39256;SDS011;67272;48.066;11.038;2023-05-24T07:15:10;5.40;;;4.13;;
39256;SDS011;67272;48.066;11.038;2023-05-24T07:17:36;5.30;;;4.28;;
39256;SDS011;67272;48.066;11.038;2023-05-24T07:20:02;5.55;;;4.20;;
39256;SDS011;67272;48.066;11.038;2023-05-24T07:22:33;5.05;;;4.60;;
39256;SDS011;67272;48.066;11.038;2023-05-24T07:24:59;4.50;;;4.00;;
39256;SDS011;67272;48.066;11.038;2023-05-24T07:27:25;4.72;;;4.22;;
39256;SDS011;67272;48.066;11.038;2023-05-24T07:29:51;4.10;;;3.70;;
39256;SDS011;67272;48.066;11.038;2023-05-24T07:32:18;4.00;;;3.60;;
39256;SDS011;67272;48.066;11.038;2023-05-24T07:34:44;4.28;;;3.85;;
39256;SDS011;67272;48.066;11.038;2023-05-24T07:37:11;4.45;;;4.05;;
39256;SDS011;67272;48.066;11.038;2023-05-24T07:39:37;5.60;;;4.47;;
39256;SDS011;67272;48.066;11.038;2023-05-24T07:42:06;5.00;;;4.05;;
39256;SDS011;67272;48.066;11.038;2023-05-24T07:44:32;5.00;;;4.50;;
39256;SDS011;67272;48.066;11.038;2023-05-24T07:46:59;5.15;;;4.70;;
39256;SDS011;67272;48.066;11.038;2023-05-24T07:49:27;5.30;;;4.60;;
39256;SDS011;67272;48.066;11.038;2023-05-24T07:51:53;5.90;;;4.57;;
39256;SDS011;67272;48.066;11.038;2023-05-24T07:54:25;5.80;;;4.25;;
39256;SDS011;67272;48.066;11.038;2023-05-24T07:56:52;4.88;;;4.25;;
39256;SDS011;67272;48.066;11.038;2023-05-24T07:59:18;7.53;;;4.63;;
39256;SDS011;67272;48.066;11.038;2023-05-24T08:01:44;5.45;;;4.95;;
39256;SDS011;67272;48.066;11.038;2023-05-24T08:04:11;4.97;;;4.50;;
39256;SDS011;67272;48.066;11.038;2023-05-24T08:06:38;5.15;;;4.65;;
39256;SDS011;67272;48.066;11.038;2023-05-24T08:09:04;5.10;;;4.63;;
39256;SDS011;67272;48.066;11.038;2023-05-24T08:11:32;5.22;;;4.72;;
39256;SDS011;67272;48.066;11.038;2023-05-24T08:13:58;4.70;;;4.25;;
39256;SDS011;67272;48.066;11.038;2023-05-24T08:16:24;5.60;;;5.10;;
39256;SDS011;67272;48.066;11.038;2023-05-24T08:18:50;5.72;;;5.03;;
39256;SDS011;67272;48.066;11.038;2023-05-24T08:21:17;5.65;;;5.05;;
39256;SDS011;67272;48.066;11.038;2023-05-24T08:23:43;6.20;;;4.85;;
39256;SDS011;67272;48.066;11.038;2023-05-24T08:26:09;6.88;;;4.82;;
39256;SDS011;67272;48.066;11.038;2023-05-24T08:28:35;5.32;;;4.38;;
39256;SDS011;67272;48.066;11.038;2023-05-24T08:31:02;7.13;;;5.53;;
39256;SDS011;67272;48.066;11.038;2023-05-24T08:33:28;5.70;;;4.68;;
39256;SDS011;67272;48.066;11.038;2023-05-24T08:35:54;5.90;;;5.15;;
39256;SDS011;67272;48.066;11.038;2023-05-24T08:38:21;6.20;;;5.10;;
39256;SDS011;67272;48.066;11.038;2023-05-24T08:40:47;5.97;;;4.90;;
39256;SDS011;67272;48.066;11.038;2023-05-24T08:43:14;6.10;;;5.00;;
39256;SDS011;67272;48.066;11.038;2023-05-24T08:45:40;5.93;;;4.93;;
39256;SDS011;67272;48.066;11.038;2023-05-24T08:48:06;5.40;;;4.90;;
39256;SDS011;67272;48.066;11.038;2023-05-24T08:50:33;7.53;;;5.53;;
39256;SDS011;67272;48.066;11.038;2023-05-24T08:53:00;5.18;;;4.68;;
39256;SDS011;67272;48.066;11.038;2023-05-24T08:55:29;5.65;;;5.15;;
39256;SDS011;67272;48.066;11.038;2023-05-24T08:57:55;5.65;;;4.72;;
39256;SDS011;67272;48.066;11.038;2023-05-24T09:00:22;6.10;;;4.78;;
39256;SDS011;67272;48.066;11.038;2023-05-24T09:02:49;6.18;;;4.68;;
39256;SDS011;67272;48.066;11.038;2023-05-24T09:05:15;5.15;;;4.65;;
39256;SDS011;67272;48.066;11.038;2023-05-24T09:07:42;5.93;;;5.00;;
39256;SDS011;67272;48.066;11.038;2023-05-24T09:10:09;5.15;;;4.65;;
39256;SDS011;67272;48.066;11.038;2023-05-24T09:12:36;5.82;;;5.22;;
39256;SDS011;67272;48.066;11.038;2023-05-24T09:15:03;9.52;;;5.55;;
39256;SDS011;67272;48.066;11.038;2023-05-24T09:17:38;6.65;;;5.57;;
39256;SDS011;67272;48.066;11.038;2023-05-24T09:20:11;5.95;;;5.35;;
39256;SDS011;67272;48.066;11.038;2023-05-24T09:22:39;6.10;;;5.03;;
39256;SDS011;67272;48.066;11.038;2023-05-24T09:25:06;6.88;;;5.90;;
39256;SDS011;67272;48.066;11.038;2023-05-24T09:27:33;7.13;;;5.78;;
39256;SDS011;67272;48.066;11.038;2023-05-24T09:30:00;6.78;;;5.80;;
39256;SDS011;67272;48.066;11.038;2023-05-24T09:32:29;7.38;;;6.68;;
39256;SDS011;67272;48.066;11.038;2023-05-24T09:34:55;6.35;;;5.68;;
39256;SDS011;67272;48.066;11.038;2023-05-24T09:37:22;6.15;;;5.55;;
39256;SDS011;67272;48.066;11.038;2023-05-24T09:39:51;6.70;;;5.32;;
39256;SDS011;67272;48.066;11.038;2023-05-24T09:42:18;7.00;;;5.43;;
39256;SDS011;67272;48.066;11.038;2023-05-24T09:45:04;7.05;;;6.18;;
39256;SDS011;67272;48.066;11.038;2023-05-24T09:47:33;6.85;;;5.50;;
39256;SDS011;67272;48.066;11.038;2023-05-24T09:50:00;6.85;;;5.82;;
39256;SDS011;67272;48.066;11.038;2023-05-24T09:52:27;6.80;;;5.68;;
39256;SDS011;67272;48.066;11.038;2023-05-24T09:54:53;6.18;;;5.57;;
39256;SDS011;67272;48.066;11.038;2023-05-24T09:57:20;6.55;;;5.93;;
39256;SDS011;67272;48.066;11.038;2023-05-24T09:59:50;6.50;;;5.70;;
39256;SDS011;67272;48.066;11.038;2023-05-24T10:02:16;6.10;;;5.40;;
39256;SDS011;67272;48.066;11.038;2023-05-24T10:04:44;6.70;;;5.90;;
39256;SDS011;67272;48.066;11.038;2023-05-24T10:07:11;8.02;;;5.82;;
39256;SDS011;67272;48.066;11.038;2023-05-24T10:09:38;8.05;;;5.80;;
39256;SDS011;67272;48.066;11.038;2023-05-24T10:12:05;6.13;;;5.47;;
39256;SDS011;67272;48.066;11.038;2023-05-24T10:14:32;6.63;;;5.93;;
39256;SDS011;67272;48.066;11.038;2023-05-24T10:17:01;7.55;;;5.85;;
39256;SDS011;67272;48.066;11.038;2023-05-24T10:19:33;5.60;;;5.10;;
39256;SDS011;67272;48.066;11.038;2023-05-24T10:22:00;6.72;;;5.40;;
39256;SDS011;67272;48.066;11.038;2023-05-24T10:24:28;8.65;;;5.07;;
39256;SDS011;67272;48.066;11.038;2023-05-24T10:26:57;6.72;;;5.30;;
39256;SDS011;67272;48.066;11.038;2023-05-24T10:29:26;7.60;;;5.20;;
39256;SDS011;67272;48.066;11.038;2023-05-24T10:31:58;5.53;;;5.03;;
39256;SDS011;67272;48.066;11.038;2023-05-24T10:34:25;5.97;;;5.28;;
39256;SDS011;67272;48.066;11.038;2023-05-24T10:36:51;7.90;;;5.57;;
39256;SDS011;67272;48.066;11.038;2023-05-24T10:39:21;5.90;;;4.88;;
39256;SDS011;67272;48.066;11.038;2023-05-24T10:41:47;7.45;;;5.05;;
39256;SDS011;67272;48.066;11.038;2023-05-24T10:44:17;6.65;;;5.20;;
39256;SDS011;67272;48.066;11.038;2023-05-24T10:49:29;6.05;;;5.45;;
39256;SDS011;67272;48.066;11.038;2023-05-24T10:52:00;6.75;;;5.30;;
39256;SDS011;67272;48.066;11.038;2023-05-24T10:54:27;9.10;;;5.45;;
39256;SDS011;67272;48.066;11.038;2023-05-24T10:56:53;6.65;;;5.70;;
39256;SDS011;67272;48.066;11.038;2023-05-24T10:59:39;7.38;;;5.50;;
39256;SDS011;67272;48.066;11.038;2023-05-24T11:02:08;9.02;;;5.32;;
39256;SDS011;67272;48.066;11.038;2023-05-24T11:04:40;7.07;;;5.18;;
39256;SDS011;67272;48.066;11.038;2023-05-24T11:07:11;6.82;;;5.70;;
39256;SDS011;67272;48.066;11.038;2023-05-24T11:09:38;6.65;;;5.50;;
39256;SDS011;67272;48.066;11.038;2023-05-24T11:12:14;6.95;;;5.57;;
39256;SDS011;67272;48.066;11.038;2023-05-24T11:14:48;6.97;;;5.65;;
39256;SDS011;67272;48.066;11.038;2023-05-24T11:17:15;6.43;;;5.10;;
39256;SDS011;67272;48.066;11.038;2023-05-24T11:19:52;6.65;;;5.68;;
39256;SDS011;67272;48.066;11.038;2023-05-24T11:22:19;6.50;;;5.63;;
39256;SDS011;67272;48.066;11.038;2023-05-24T11:24:46;6.97;;;5.88;;
39256;SDS011;67272;48.066;11.038;2023-05-24T11:27:12;5.82;;;5.10;;
39256;SDS011;67272;48.066;11.038;2023-05-24T11:29:43;7.18;;;5.55;;
39256;SDS011;67272;48.066;11.038;2023-05-24T11:32:13;6.70;;;5.60;;
39256;SDS011;67272;48.066;11.038;2023-05-24T11:34:41;7.10;;;5.50;;
39256;SDS011;67272;48.066;11.038;2023-05-24T11:37:09;6.35;;;5.57;;
39256;SDS011;67272;48.066;11.038;2023-05-24T11:39:36;8.35;;;5.72;;
39256;SDS011;67272;48.066;11.038;2023-05-24T11:42:03;7.57;;;6.07;;
39256;SDS011;67272;48.066;11.038;2023-05-24T11:44:30;8.32;;;5.40;;
39256;SDS011;67272;48.066;11.038;2023-05-24T11:46:57;8.25;;;5.78;;
39256;SDS011;67272;48.066;11.038;2023-05-24T11:49:24;8.80;;;5.80;;
39256;SDS011;67272;48.066;11.038;2023-05-24T11:51:52;8.07;;;5.80;;
39256;SDS011;67272;48.066;11.038;2023-05-24T11:54:18;6.88;;;5.60;;
39256;SDS011;67272;48.066;11.038;2023-05-24T11:56:46;6.45;;;5.60;;
39256;SDS011;67272;48.066;11.038;2023-05-24T11:59:13;8.88;;;5.45;;
39256;SDS011;67272;48.066;11.038;2023-05-24T12:01:40;7.40;;;5.70;;
39256;SDS011;67272;48.066;11.038;2023-05-24T12:04:06;7.53;;;5.93;;
39256;SDS011;67272;48.066;11.038;2023-05-24T12:06:40;8.52;;;6.05;;
39256;SDS011;67272;48.066;11.038;2023-05-24T12:09:07;6.50;;;5.50;;
39256;SDS011;67272;48.066;11.038;2023-05-24T12:11:41;7.15;;;5.32;;
39256;SDS011;67272;48.066;11.038;2023-05-24T12:14:12;7.38;;;5.45;;
39256;SDS011;67272;48.066;11.038;2023-05-24T12:16:38;7.53;;;5.55;;
39256;SDS011;67272;48.066;11.038;2023-05-24T12:19:04;8.48;;;5.32;;
39256;SDS011;67272;48.066;11.038;2023-05-24T12:21:31;7.82;;;5.60;;
39256;SDS011;67272;48.066;11.038;2023-05-24T12:24:11;6.72;;;6.03;;
39256;SDS011;67272;48.066;11.038;2023-05-24T12:26:42;6.40;;;5.70;;
39256;SDS011;67272;48.066;11.038;2023-05-24T12:29:12;6.53;;;5.70;;
39256;SDS011;67272;48.066;11.038;2023-05-24T12:31:41;6.78;;;5.18;;
39256;SDS011;67272;48.066;11.038;2023-05-24T12:34:11;6.30;;;5.70;;
39256;SDS011;67272;48.066;11.038;2023-05-24T12:36:37;7.50;;;5.72;;
39256;SDS011;67272;48.066;11.038;2023-05-24T12:39:26;7.00;;;5.53;;
39256;SDS011;67272;48.066;11.038;2023-05-24T12:41:58;8.48;;;5.95;;
39256;SDS011;67272;48.066;11.038;2023-05-24T12:46:54;7.30;;;6.57;;
39256;SDS011;67272;48.066;11.038;2023-05-24T12:49:20;7.72;;;5.78;;
39256;SDS011;67272;48.066;11.038;2023-05-24T12:51:47;6.10;;;5.28;;
39256;SDS011;67272;48.066;11.038;2023-05-24T12:54:26;7.15;;;6.05;;
39256;SDS011;67272;48.066;11.038;2023-05-24T12:56:53;6.85;;;5.32;;
39256;SDS011;67272;48.066;11.038;2023-05-24T12:59:20;7.10;;;6.00;;
39256;SDS011;67272;48.066;11.038;2023-05-24T13:01:46;6.63;;;5.60;;
39256;SDS011;67272;48.066;11.038;2023-05-24T13:04:16;6.22;;;5.70;;
39256;SDS011;67272;48.066;11.038;2023-05-24T13:06:42;9.88;;;5.78;;
39256;SDS011;67272;48.066;11.038;2023-05-24T13:09:09;7.35;;;5.82;;
39256;SDS011;67272;48.066;11.038;2023-05-24T13:11:35;6.82;;;5.35;;
39256;SDS011;67272;48.066;11.038;2023-05-24T13:14:01;7.05;;;5.90;;
39256;SDS011;67272;48.066;11.038;2023-05-24T13:16:27;7.10;;;5.55;;
39256;SDS011;67272;48.066;11.038;2023-05-24T13:18:54;7.78;;;5.80;;
39256;SDS011;67272;48.066;11.038;2023-05-24T13:21:20;7.72;;;5.85;;
39256;SDS011;67272;48.066;11.038;2023-05-24T13:23:46;7.22;;;5.60;;
39256;SDS011;67272;48.066;11.038;2023-05-24T13:26:13;9.95;;;5.85;;
39256;SDS011;67272;48.066;11.038;2023-05-24T13:28:39;7.82;;;5.82;;
39256;SDS011;67272;48.066;11.038;2023-05-24T13:31:06;8.20;;;5.72;;
39256;SDS011;67272;48.066;11.038;2023-05-24T13:33:33;7.15;;;5.90;;
39256;SDS011;67272;48.066;11.038;2023-05-24T13:35:59;6.20;;;5.60;;
39256;SDS011;67272;48.066;11.038;2023-05-24T13:38:26;7.53;;;6.68;;
39256;SDS011;67272;48.066;11.038;2023-05-24T13:40:52;7.35;;;6.07;;
39256;SDS011;67272;48.066;11.038;2023-05-24T13:43:19;5.88;;;5.28;;
39256;SDS011;67272;48.066;11.038;2023-05-24T13:45:45;7.05;;;5.50;;
39256;SDS011;67272;48.066;11.038;2023-05-24T13:48:12;8.48;;;5.93;;
39256;SDS011;67272;48.066;11.038;2023-05-24T13:50:38;6.68;;;5.78;;
39256;SDS011;67272;48.066;11.038;2023-05-24T13:53:05;6.03;;;5.35;;
39256;SDS011;67272;48.066;11.038;2023-05-24T13:55:32;7.78;;;5.90;;
39256;SDS011;67272;48.066;11.038;2023-05-24T13:57:59;8.07;;;5.50;;
39256;SDS011;67272;48.066;11.038;2023-05-24T14:00:25;7.82;;;5.97;;
39256;SDS011;67272;48.066;11.038;2023-05-24T14:02:52;6.32;;;5.70;;
39256;SDS011;67272;48.066;11.038;2023-05-24T14:05:19;6.38;;;5.55;;
39256;SDS011;67272;48.066;11.038;2023-05-24T14:07:45;6.53;;;5.78;;
39256;SDS011;67272;48.066;11.038;2023-05-24T14:10:12;7.93;;;5.43;;
39256;SDS011;67272;48.066;11.038;2023-05-24T14:12:38;8.40;;;5.53;;
39256;SDS011;67272;48.066;11.038;2023-05-24T14:15:04;6.30;;;5.70;;
39256;SDS011;67272;48.066;11.038;2023-05-24T14:17:31;6.47;;;5.70;;
39256;SDS011;67272;48.066;11.038;2023-05-24T14:19:57;6.10;;;5.50;;
39256;SDS011;67272;48.066;11.038;2023-05-24T14:22:23;6.35;;;5.60;;
39256;SDS011;67272;48.066;11.038;2023-05-24T14:24:52;7.32;;;5.78;;
39256;SDS011;67272;48.066;11.038;2023-05-24T14:27:18;6.32;;;5.72;;
39256;SDS011;67272;48.066;11.038;2023-05-24T14:29:44;7.72;;;5.80;;
39256;SDS011;67272;48.066;11.038;2023-05-24T14:32:11;7.80;;;5.85;;
39256;SDS011;67272;48.066;11.038;2023-05-24T14:34:37;7.45;;;5.75;;
39256;SDS011;67272;48.066;11.038;2023-05-24T14:37:03;7.43;;;5.45;;
39256;SDS011;67272;48.066;11.038;2023-05-24T14:39:30;7.72;;;5.80;;
39256;SDS011;67272;48.066;11.038;2023-05-24T14:41:56;7.43;;;6.10;;
39256;SDS011;67272;48.066;11.038;2023-05-24T14:44:22;8.75;;;6.05;;
39256;SDS011;67272;48.066;11.038;2023-05-24T14:46:48;6.55;;;5.90;;
39256;SDS011;67272;48.066;11.038;2023-05-24T14:49:14;6.28;;;5.45;;
39256;SDS011;67272;48.066;11.038;2023-05-24T14:51:40;6.65;;;5.38;;
39256;SDS011;67272;48.066;11.038;2023-05-24T14:54:09;6.90;;;5.60;;
39256;SDS011;67272;48.066;11.038;2023-05-24T14:56:36;6.43;;;5.55;;
39256;SDS011;67272;48.066;11.038;2023-05-24T14:59:02;6.65;;;5.90;;